createdAt,value
2018-12-10T00:00:45.669Z,66.50
2018-12-10T00:03:22.357Z,67.80
2018-12-10T00:05:52.641Z,66.10
2018-12-10T00:10:49.445Z,65.70
2018-12-10T00:13:17.710Z,65.90
2018-12-10T00:15:46.249Z,66.40
2018-12-10T00:18:14.562Z,66.30
2018-12-10T00:20:42.890Z,66.50
2018-12-10T00:23:11.411Z,67.10
2018-12-10T00:25:40.256Z,67.70
2018-12-10T00:28:08.564Z,68.70
2018-12-10T00:33:05.293Z,66.30
2018-12-10T00:35:33.563Z,67.00
2018-12-10T00:38:01.994Z,66.30
2018-12-10T00:42:59.388Z,66.20
2018-12-10T00:45:28.122Z,66.20
2018-12-10T00:47:56.444Z,66.70
2018-12-10T00:50:24.758Z,66.60
2018-12-10T00:52:53.898Z,66.40
2018-12-10T00:55:22.563Z,67.00
2018-12-10T00:57:51.245Z,67.30
2018-12-10T01:00:19.671Z,67.50
2018-12-10T01:02:48.519Z,68.30
2018-12-10T01:05:16.773Z,67.90
2018-12-10T01:07:45.564Z,67.40
2018-12-10T01:10:14.143Z,67.40
2018-12-10T01:12:42.745Z,67.40
2018-12-10T01:15:11.031Z,68.00
2018-12-10T01:17:39.280Z,67.80
2018-12-10T01:20:07.642Z,67.30
2018-12-10T01:22:36.018Z,68.00
2018-12-10T01:25:04.781Z,67.70
2018-12-10T01:27:33.277Z,67.40
2018-12-10T01:30:01.527Z,66.40
2018-12-10T01:32:30.766Z,67.00
2018-12-10T01:34:59.574Z,67.00
2018-12-10T01:37:28.100Z,66.70
2018-12-10T01:39:57.148Z,66.80
2018-12-10T01:42:25.714Z,65.50
2018-12-10T01:44:54.510Z,66.10
2018-12-10T01:47:22.787Z,65.50
2018-12-10T01:49:51.067Z,66.00
2018-12-10T01:52:19.304Z,65.90
2018-12-10T01:54:47.657Z,65.70
2018-12-10T01:57:15.929Z,65.00
2018-12-10T01:59:44.196Z,65.10
2018-12-10T02:02:12.563Z,65.00
2018-12-10T02:04:40.831Z,64.90
2018-12-10T02:07:09.092Z,65.50
2018-12-10T02:09:37.660Z,65.60
2018-12-10T02:12:06.900Z,64.80
2018-12-10T02:14:35.874Z,64.60
2018-12-10T02:17:04.542Z,64.80
2018-12-10T02:19:33.469Z,65.40
2018-12-10T02:22:02.382Z,64.70
2018-12-10T02:24:30.980Z,63.80
2018-12-10T02:26:59.585Z,64.40
2018-12-10T02:29:27.897Z,62.70
2018-12-10T02:31:56.169Z,63.30
2018-12-10T02:34:24.417Z,62.40
2018-12-10T02:36:52.966Z,62.80
2018-12-10T02:39:21.481Z,62.90
2018-12-10T02:44:19.569Z,62.80
2018-12-10T02:46:47.848Z,63.80
2018-12-10T02:49:16.737Z,63.30
2018-12-10T02:51:45.402Z,63.30
2018-12-10T02:54:13.808Z,62.60
2018-12-10T02:56:42.480Z,63.30
2018-12-10T02:59:11.063Z,63.30
2018-12-10T03:01:39.442Z,63.30
2018-12-10T03:04:08.034Z,63.40
2018-12-10T03:06:36.629Z,63.00
2018-12-10T03:09:07.268Z,63.00
2018-12-10T03:11:36.665Z,63.20
2018-12-10T03:14:04.901Z,62.70
2018-12-10T03:16:33.205Z,63.10
2018-12-10T03:19:02.413Z,62.70
2018-12-10T03:21:31.272Z,63.50
2018-12-10T03:23:59.570Z,63.20
2018-12-10T03:26:27.898Z,62.70
2018-12-10T03:28:56.434Z,63.10
2018-12-10T03:31:25.246Z,61.50
2018-12-10T03:33:53.856Z,61.80
2018-12-10T03:36:22.106Z,61.50
2018-12-10T03:38:50.410Z,62.10
2018-12-10T03:41:18.935Z,62.60
2018-12-10T03:43:47.339Z,61.90
2018-12-10T03:46:15.673Z,61.20
2018-12-10T03:48:44.005Z,61.10
2018-12-10T03:51:12.277Z,61.00
2018-12-10T03:53:40.600Z,60.80
2018-12-10T03:58:48.930Z,60.70
2018-12-10T04:01:17.208Z,61.40
2018-12-10T04:06:15.783Z,61.50
2018-12-10T04:08:44.137Z,62.10
2018-12-10T04:11:12.675Z,62.70
2018-12-10T04:13:40.993Z,63.00
2018-12-10T04:16:09.395Z,63.40
2018-12-10T04:18:37.933Z,63.80
2018-12-10T04:23:34.485Z,64.50
2018-12-10T04:26:04.822Z,66.30
2018-12-10T04:28:33.097Z,66.00
2018-12-10T04:31:01.972Z,65.80
2018-12-10T04:33:30.956Z,66.10
2018-12-10T04:35:59.192Z,64.70
2018-12-10T04:38:27.732Z,64.70
2018-12-10T04:41:13.120Z,63.70
2018-12-10T04:43:43.008Z,64.30
2018-12-10T04:46:11.311Z,65.40
2018-12-10T04:48:39.697Z,65.70
2018-12-10T04:51:08.101Z,66.10
2018-12-10T04:53:36.930Z,66.80
2018-12-10T04:56:05.534Z,66.60
2018-12-10T04:58:34.362Z,67.20
2018-12-10T05:01:03.195Z,67.20
2018-12-10T05:03:31.493Z,66.50
2018-12-10T05:05:59.829Z,66.60
2018-12-10T05:08:28.111Z,66.50
2018-12-10T05:10:56.329Z,67.10
2018-12-10T05:13:24.626Z,67.20
2018-12-10T05:15:53.464Z,65.50
2018-12-10T05:18:22.312Z,66.10
2018-12-10T05:20:51.193Z,66.00
2018-12-10T05:23:20.056Z,66.00
2018-12-10T05:25:48.648Z,64.90
2018-12-10T05:28:16.917Z,65.60
2018-12-10T05:30:48.026Z,66.20
2018-12-10T05:33:19.682Z,65.80
2018-12-10T05:35:50.728Z,65.80
2018-12-10T05:38:20.878Z,66.20
2018-12-10T05:43:32.090Z,66.90
2018-12-10T05:46:02.313Z,69.80
2018-12-10T05:48:36.185Z,71.20
2018-12-10T05:51:06.899Z,73.20
2018-12-10T05:53:38.311Z,73.80
2018-12-10T05:56:09.303Z,73.40
2018-12-10T05:58:40.459Z,74.00
2018-12-10T06:01:12.582Z,74.40
2018-12-10T06:03:43.141Z,75.00
2018-12-10T06:06:15.256Z,75.20
2018-12-10T06:08:47.882Z,75.70
2018-12-10T06:11:18.766Z,74.60
2018-12-10T06:13:50.232Z,75.00
2018-12-10T06:16:21.377Z,73.00
2018-12-10T06:18:53.030Z,73.20
2018-12-10T06:21:25.007Z,73.70
2018-12-10T06:23:56.814Z,73.30
2018-12-10T06:26:33.704Z,73.30
2018-12-10T06:29:05.039Z,73.30
2018-12-10T06:31:36.661Z,73.40
2018-12-10T06:34:09.125Z,73.30
2018-12-10T06:36:40.270Z,73.30
2018-12-10T06:39:11.942Z,71.20
2018-12-10T06:41:43.337Z,74.20
2018-12-10T06:44:15.402Z,74.40
2018-12-10T06:46:46.887Z,74.90
2018-12-10T06:49:18.036Z,74.50
2018-12-10T06:51:48.248Z,74.20
2018-12-10T06:54:18.932Z,73.90
2018-12-10T06:56:49.360Z,74.90
2018-12-10T07:02:02.591Z,76.00
2018-12-10T07:04:34.817Z,76.60
2018-12-10T07:07:05.810Z,76.10
2018-12-10T07:09:37.076Z,75.50
2018-12-10T07:12:07.559Z,76.10
2018-12-10T07:14:39.104Z,76.00
2018-12-10T07:17:10.638Z,75.90
2018-12-10T07:19:42.095Z,74.60
2018-12-10T07:22:14.275Z,75.10
2018-12-10T07:24:46.547Z,74.10
2018-12-10T07:27:17.983Z,74.50
2018-12-10T07:29:49.184Z,73.30
2018-12-10T07:32:21.116Z,73.80
2018-12-10T07:34:53.182Z,72.90
2018-12-10T07:37:23.432Z,73.70
2018-12-10T07:39:54.546Z,71.80
2018-12-10T07:42:26.217Z,70.80
2018-12-10T07:44:58.080Z,71.20
2018-12-10T07:47:30.172Z,70.90
2018-12-10T07:50:02.120Z,69.90
2018-12-10T07:52:32.320Z,69.50
2018-12-10T07:55:03.834Z,69.70
2018-12-10T07:57:35.356Z,70.30
2018-12-10T08:00:06.211Z,69.00
2018-12-10T08:02:38.407Z,69.50
2018-12-10T08:05:12.446Z,68.50
2018-12-10T08:07:44.179Z,66.20
2018-12-10T08:10:15.568Z,66.90
2018-12-10T08:12:48.820Z,67.40
2018-12-10T08:17:51.623Z,66.30
2018-12-10T08:20:24.119Z,66.30
2018-12-10T08:22:55.596Z,66.20
2018-12-10T08:25:27.559Z,65.10
2018-12-10T08:30:30.125Z,64.40
2018-12-10T08:33:01.692Z,64.40
2018-12-10T08:35:42.174Z,64.20
2018-12-10T08:40:39.028Z,64.10
2018-12-10T08:43:11.399Z,63.60
2018-12-10T08:45:43.919Z,64.30
2018-12-10T08:48:15.843Z,63.80
2018-12-10T08:50:48.321Z,64.40
2018-12-10T08:53:20.256Z,64.60
2018-12-10T08:55:51.674Z,64.60
2018-12-10T08:58:23.559Z,64.20
2018-12-10T09:00:55.965Z,63.60
2018-12-10T09:03:28.331Z,63.80
2018-12-10T09:05:59.996Z,64.40
2018-12-10T09:08:30.990Z,63.80
2018-12-10T09:11:01.886Z,64.30
2018-12-10T09:13:34.021Z,63.70
2018-12-10T09:16:06.061Z,64.20
2018-12-10T09:18:37.219Z,63.60
2018-12-10T09:21:08.355Z,62.90
2018-12-10T09:23:40.635Z,63.50
2018-12-10T09:26:13.574Z,62.70
2018-12-10T09:28:45.202Z,62.90
2018-12-10T09:31:17.402Z,62.60
2018-12-10T09:33:50.002Z,62.00
2018-12-10T09:36:21.621Z,62.10
2018-12-10T09:38:52.653Z,62.00
2018-12-10T09:41:23.580Z,61.70
2018-12-10T09:43:54.103Z,61.70
2018-12-10T09:46:27.626Z,63.00
2018-12-10T09:48:59.233Z,62.70
2018-12-10T09:51:31.798Z,62.00
2018-12-10T09:54:03.751Z,62.30
2018-12-10T09:56:35.060Z,62.70
2018-12-10T09:59:06.973Z,62.00
2018-12-10T10:01:39.321Z,62.10
2018-12-10T10:04:11.045Z,61.40
2018-12-10T10:06:43.887Z,60.50
2018-12-10T10:09:19.152Z,60.00
2018-12-10T10:11:50.379Z,59.50
2018-12-10T10:14:22.611Z,59.50
2018-12-10T10:16:54.638Z,59.40
2018-12-10T10:19:26.206Z,58.40
2018-12-10T10:21:57.876Z,58.90
2018-12-10T10:24:30.317Z,58.80
2018-12-10T10:27:00.560Z,58.90
2018-12-10T10:29:31.127Z,58.70
2018-12-10T10:32:02.264Z,59.40
2018-12-10T10:34:34.542Z,59.40
2018-12-10T10:37:06.628Z,59.60
2018-12-10T10:39:37.954Z,59.10
2018-12-10T10:42:12.054Z,58.80
2018-12-10T10:44:43.843Z,59.30
2018-12-10T10:47:15.897Z,58.90
2018-12-10T10:49:46.829Z,59.60
2018-12-10T10:52:18.875Z,59.70
2018-12-10T10:54:50.268Z,59.20
2018-12-10T10:57:22.446Z,59.50
2018-12-10T10:59:54.219Z,59.10
2018-12-10T11:02:31.387Z,59.60
2018-12-10T11:05:02.732Z,59.70
2018-12-10T11:07:35.027Z,59.00
2018-12-10T11:10:07.772Z,58.70
2018-12-10T11:12:39.471Z,58.90
2018-12-10T11:15:14.659Z,59.00
2018-12-10T11:17:46.946Z,58.20
2018-12-10T11:20:18.162Z,58.30
2018-12-10T11:22:49.215Z,59.00
2018-12-10T11:25:29.283Z,59.30
2018-12-10T11:28:10.921Z,59.50
2018-12-10T11:30:43.550Z,56.60
2018-12-10T11:33:14.333Z,58.00
2018-12-10T11:35:45.745Z,58.00
2018-12-10T11:38:17.481Z,58.20
2018-12-10T11:40:48.964Z,58.10
2018-12-10T11:43:21.946Z,57.80
2018-12-10T11:45:54.348Z,57.80
2018-12-10T11:48:25.392Z,57.70
2018-12-10T11:50:56.452Z,57.50
2018-12-10T11:53:28.623Z,57.90
2018-12-10T11:55:59.687Z,57.90
2018-12-10T11:58:32.493Z,57.20
2018-12-10T12:01:03.853Z,56.70
2018-12-10T12:03:35.397Z,57.30
2018-12-10T12:06:08.588Z,57.30
2018-12-10T12:08:40.160Z,57.30
2018-12-10T12:11:11.135Z,57.50
2018-12-10T12:13:44.435Z,57.40
2018-12-10T12:16:16.145Z,57.30
2018-12-10T12:18:47.751Z,57.40
2018-12-10T12:21:18.614Z,57.50
2018-12-10T12:23:49.318Z,56.20
2018-12-10T12:26:23.356Z,56.00
2018-12-10T12:28:58.594Z,56.40
2018-12-10T12:31:29.884Z,56.30
2018-12-10T12:34:00.733Z,56.00
2018-12-10T12:36:43.116Z,56.80
2018-12-10T12:39:15.764Z,56.30
2018-12-10T12:41:47.212Z,55.60
2018-12-10T12:44:18.659Z,56.20
2018-12-10T12:46:50.181Z,55.00
2018-12-10T12:49:22.612Z,54.80
2018-12-10T12:51:54.654Z,54.30
2018-12-10T12:54:30.571Z,54.30
2018-12-10T12:57:02.311Z,54.80
2018-12-10T12:59:33.252Z,55.60
2018-12-10T13:02:04.668Z,54.40
2018-12-10T13:04:35.439Z,55.00
2018-12-10T13:07:06.191Z,54.50
2018-12-10T13:09:35.697Z,55.00
2018-12-10T13:12:05.812Z,53.20
2018-12-10T13:14:38.255Z,52.90
2018-12-10T13:17:08.352Z,53.30
2018-12-10T13:19:40.200Z,53.50
2018-12-10T13:22:11.415Z,53.20
2018-12-10T13:27:30.781Z,47.70
2018-12-10T13:30:04.385Z,46.70
2018-12-10T13:32:35.078Z,45.60
2018-12-10T13:35:06.302Z,46.80
2018-12-10T13:40:25.009Z,48.90
2018-12-10T13:42:55.689Z,50.50
2018-12-10T13:45:30.981Z,49.30
2018-12-10T13:48:00.646Z,49.70
2018-12-10T13:50:31.950Z,50.00
2018-12-10T13:53:03.139Z,51.40
2018-12-10T13:55:35.076Z,51.90
2018-12-10T13:58:06.284Z,52.10
2018-12-10T14:00:39.863Z,52.10
2018-12-10T14:03:10.282Z,52.30
2018-12-10T14:05:41.038Z,52.70
2018-12-10T14:08:12.027Z,52.10
2018-12-10T14:10:42.064Z,47.10
2018-12-10T14:13:12.164Z,46.00
2018-12-10T14:15:43.349Z,46.50
2018-12-10T14:18:15.234Z,45.10
2018-12-10T14:20:46.887Z,43.50
2018-12-10T14:23:18.250Z,41.60
2018-12-10T14:25:49.223Z,42.50
2018-12-10T14:28:21.577Z,45.90
2018-12-10T14:30:53.608Z,46.50
2018-12-10T14:33:25.364Z,46.50
2018-12-10T14:35:57.642Z,47.10
2018-12-10T14:38:28.773Z,48.40
2018-12-10T14:41:00.988Z,49.30
2018-12-10T14:46:03.285Z,51.20
2018-12-10T14:48:34.532Z,51.80
2018-12-10T14:53:37.633Z,52.10
2018-12-10T14:56:11.787Z,53.90
2018-12-10T14:58:43.454Z,53.70
2018-12-10T15:01:15.274Z,54.30
2018-12-10T15:03:47.088Z,54.90
2018-12-10T15:06:25.126Z,55.60
2018-12-10T15:08:58.364Z,55.90
2018-12-10T15:11:38.272Z,56.00
2018-12-10T15:14:09.712Z,55.70
2018-12-10T15:16:39.670Z,56.20
2018-12-10T15:19:10.859Z,56.10
2018-12-10T15:21:46.784Z,56.60
2018-12-10T15:24:20.611Z,56.60
2018-12-10T15:29:21.790Z,59.80
2018-12-10T15:31:51.901Z,63.00
2018-12-10T15:34:21.773Z,64.10
2018-12-10T15:36:51.662Z,64.80
2018-12-10T15:39:21.555Z,66.20
2018-12-10T15:41:52.329Z,66.70
2018-12-10T15:44:27.113Z,66.90
2018-12-10T15:47:00.518Z,67.20
2018-12-10T15:49:31.182Z,68.00
2018-12-10T15:52:01.304Z,67.80
2018-12-10T15:57:02.140Z,68.30
2018-12-10T16:02:01.443Z,67.90
2018-12-10T16:04:34.066Z,68.90
2018-12-10T16:09:34.843Z,67.60
2018-12-10T16:12:04.873Z,67.80
2018-12-10T16:14:35.502Z,67.10
2018-12-10T16:17:06.451Z,68.10
2018-12-10T16:19:37.086Z,66.90
2018-12-10T16:22:07.891Z,67.30
2018-12-10T16:24:38.517Z,67.90
2018-12-10T16:27:09.792Z,66.00
2018-12-10T16:29:39.102Z,66.60
2018-12-10T16:32:09.436Z,66.00
2018-12-10T16:34:39.823Z,67.10
2018-12-10T16:37:10.293Z,66.00
2018-12-10T16:39:43.767Z,66.60
2018-12-10T16:44:41.928Z,65.20
2018-12-10T16:47:12.472Z,65.10
2018-12-10T16:49:42.278Z,65.00
2018-12-10T16:52:12.881Z,65.00
2018-12-10T16:54:46.298Z,65.50
2018-12-10T16:57:18.671Z,66.30
2018-12-10T16:59:49.872Z,65.10
2018-12-10T17:02:20.740Z,64.70
2018-12-10T17:04:54.500Z,65.40
2018-12-10T17:07:25.630Z,65.40
2018-12-10T17:09:56.674Z,65.30
2018-12-10T17:12:31.966Z,64.40
2018-12-10T17:15:03.649Z,64.30
2018-12-10T17:17:43.364Z,63.50
2018-12-10T17:20:14.766Z,64.00
2018-12-10T17:22:45.627Z,63.30
2018-12-10T17:25:16.115Z,62.50
2018-12-10T17:27:51.272Z,62.70
2018-12-10T17:30:21.954Z,61.60
2018-12-10T17:32:52.740Z,62.20
2018-12-10T17:35:22.925Z,60.70
2018-12-10T17:37:53.322Z,60.90
2018-12-10T17:40:23.431Z,61.90
2018-12-10T17:42:53.912Z,61.40
2018-12-10T17:45:24.079Z,61.30
2018-12-10T17:47:55.519Z,61.20
2018-12-10T17:50:25.058Z,60.30
2018-12-10T17:52:55.135Z,60.80
2018-12-10T17:55:25.580Z,60.30
2018-12-10T17:57:55.644Z,60.80
2018-12-10T18:02:56.151Z,60.20
2018-12-10T18:07:56.507Z,60.70
2018-12-10T18:10:26.989Z,60.80
2018-12-10T18:12:57.441Z,60.70
2018-12-10T18:15:27.358Z,61.30
2018-12-10T18:20:46.639Z,60.90
2018-12-10T18:25:47.678Z,59.40
2018-12-10T18:28:18.351Z,60.50
2018-12-10T18:30:49.462Z,60.20
2018-12-10T18:33:19.537Z,59.10
2018-12-10T18:35:52.086Z,59.30
2018-12-10T18:38:22.099Z,59.80
2018-12-10T18:40:52.340Z,59.10
2018-12-10T18:43:22.467Z,59.70
2018-12-10T18:45:53.291Z,59.60
2018-12-10T18:48:22.464Z,60.70
2018-12-10T18:50:52.593Z,60.40
2018-12-10T18:53:23.006Z,60.60
2018-12-10T18:55:53.529Z,60.20
2018-12-10T18:58:23.558Z,61.00
2018-12-10T19:00:53.998Z,61.80
2018-12-10T19:03:24.637Z,64.60
2018-12-10T19:05:55.247Z,72.00
2018-12-10T19:08:25.796Z,72.80
2018-12-10T19:10:56.499Z,77.00
2018-12-10T19:13:26.673Z,80.10
2018-12-10T19:15:57.175Z,81.90
2018-12-10T19:18:28.007Z,82.50
2018-12-10T19:20:58.957Z,81.30
2018-12-10T19:23:29.510Z,81.80
2018-12-10T19:25:59.576Z,81.30
2018-12-10T19:28:29.925Z,81.50
2018-12-10T19:31:00.413Z,81.00
2018-12-10T19:33:30.968Z,80.60
2018-12-10T19:36:01.222Z,80.20
2018-12-10T19:38:29.518Z,81.00
2018-12-10T19:40:57.852Z,80.90
2018-12-10T19:43:26.665Z,78.30
2018-12-10T19:45:55.780Z,79.00
2018-12-10T19:48:24.816Z,77.50
2018-12-10T19:50:54.005Z,77.90
2018-12-10T19:53:22.417Z,78.50
2018-12-10T19:55:51.576Z,78.50
2018-12-10T19:58:21.138Z,79.20
2018-12-10T20:00:50.445Z,78.90
2018-12-10T20:03:18.781Z,79.20
2018-12-10T20:05:53.913Z,78.90
2018-12-10T20:08:23.397Z,80.20
2018-12-10T20:10:52.141Z,80.30
2018-12-10T20:13:20.919Z,79.20
2018-12-10T20:15:49.669Z,79.20
2018-12-10T20:18:18.273Z,80.20
2018-12-10T20:20:46.548Z,79.50
2018-12-10T20:23:15.158Z,80.10
2018-12-10T20:25:43.663Z,81.40
2018-12-10T20:28:12.572Z,79.70
2018-12-10T20:30:41.395Z,80.40
2018-12-10T20:35:38.144Z,81.10
2018-12-10T20:38:06.468Z,81.50
2018-12-10T20:40:34.861Z,81.50
2018-12-10T20:43:04.573Z,81.60
2018-12-10T20:45:32.869Z,81.70
2018-12-10T20:48:01.751Z,80.80
2018-12-10T20:50:30.558Z,80.10
2018-12-10T20:52:58.869Z,80.20
2018-12-10T20:55:28.042Z,81.30
2018-12-10T20:57:57.553Z,80.80
2018-12-10T21:03:09.179Z,80.50
2018-12-10T21:05:42.353Z,80.90
2018-12-10T21:08:10.919Z,80.90
2018-12-10T21:10:39.349Z,81.30
2018-12-10T21:13:08.750Z,81.90
2018-12-10T21:15:37.786Z,82.20
2018-12-10T21:18:06.251Z,81.40
2018-12-10T21:20:35.859Z,80.50
2018-12-10T21:23:04.253Z,80.80
2018-12-10T21:25:32.952Z,81.30
2018-12-10T21:28:02.087Z,81.70
2018-12-10T21:30:30.960Z,81.10
2018-12-10T21:33:00.217Z,81.00
2018-12-10T21:35:29.721Z,82.00
2018-12-10T21:37:58.739Z,82.30
2018-12-10T21:40:27.432Z,81.60
2018-12-10T21:42:56.396Z,82.20
2018-12-10T21:45:24.876Z,82.80
2018-12-10T21:47:53.900Z,83.50
2018-12-10T21:50:22.670Z,82.40
2018-12-10T21:52:51.657Z,83.10
2018-12-10T21:55:20.351Z,80.80
2018-12-10T21:57:48.953Z,80.40
2018-12-10T22:00:18.443Z,80.70
2018-12-10T22:02:48.142Z,81.30
2018-12-10T22:05:17.601Z,80.20
2018-12-10T22:07:47.953Z,79.20
2018-12-10T22:10:16.605Z,77.30
2018-12-10T22:12:45.905Z,75.90
2018-12-10T22:15:14.332Z,76.00
2018-12-10T22:17:42.739Z,75.10
2018-12-10T22:20:13.101Z,75.50
2018-12-10T22:22:42.687Z,76.10
2018-12-10T22:25:11.774Z,73.90
2018-12-10T22:27:40.202Z,74.70
2018-12-10T22:30:09.483Z,74.60
2018-12-10T22:32:38.689Z,74.90
2018-12-10T22:35:10.358Z,75.70
2018-12-10T22:37:39.297Z,76.00
2018-12-10T22:40:07.641Z,76.40
2018-12-10T22:42:35.979Z,76.50
2018-12-10T22:45:05.421Z,76.60
2018-12-10T22:47:34.074Z,77.20
2018-12-10T22:50:03.061Z,78.20
2018-12-10T22:52:31.691Z,78.60
2018-12-10T22:55:00.019Z,77.70
2018-12-10T22:57:28.768Z,75.30
2018-12-10T23:02:25.640Z,76.30
2018-12-10T23:04:53.923Z,77.30
2018-12-10T23:07:23.381Z,77.80
2018-12-10T23:09:51.709Z,78.30
2018-12-10T23:12:20.008Z,77.50
2018-12-10T23:14:48.298Z,77.60
2018-12-10T23:17:16.707Z,77.90
2018-12-10T23:19:45.050Z,77.20
2018-12-10T23:22:13.618Z,77.20
2018-12-10T23:24:42.353Z,77.80
2018-12-10T23:27:10.705Z,78.60
2018-12-10T23:29:39.094Z,78.80
2018-12-10T23:32:07.364Z,79.80
2018-12-10T23:34:35.693Z,77.30
2018-12-10T23:37:03.971Z,78.40
2018-12-10T23:39:32.293Z,80.00
2018-12-10T23:42:00.642Z,78.30
2018-12-10T23:44:34.758Z,78.50
2018-12-10T23:47:03.637Z,78.50
2018-12-10T23:49:32.269Z,78.70
2018-12-10T23:52:00.721Z,78.40
2018-12-10T23:54:29.138Z,77.50
2018-12-10T23:56:57.746Z,77.50
2018-12-10T23:59:26.298Z,77.80
